To NAV CANADA Home Page Login to a new session Search on AWWS site Feedback and Comments Disclaimer Vers la page française équivalente Tips FAQ What's new on the site To the Forecasts and Observations / NOTAM section To "File a Flight Plan" website Publications and other links Update of the User's profile FIC Telephone Numbers My Weather Data Folder Route Weather Data Regional Weather Data Local Weather Data To the Forecasts and Observations / NOTAM section
Request Generated 03/05/2015 at 08:01:20 UTC . Weather information available at that time is displayed.

METAR/TAF

CALGARY/CALGARY INTL/AB    

METAR CYYC 050700Z VRB02KT 15SM SKC M04/M13 A2995 RMK SLP198=
METAR CYYC 050600Z 07004KT 15SM FEW230 M05/M12 A2995 RMK CI1 CI TR
SLP199=
METAR CYYC 050500Z VRB03KT 15SM SKC M06/M12 A2993 RMK SLP201=

TAF CYYC 050539Z 0506/0606 34008KT P6SM FEW250
BECMG 0508/0510 31012KT
FM051000 29012G22KT P6SM SCT250
BECMG 0512/0514 28010KT
FM051700 28008KT P6SM FEW140 BKN200
BECMG 0518/0520 28010G20KT
BECMG 0523/0601 28010KT
FM060300 28008KT P6SM SCT140 BKN200
BECMG 0604/0606 28015KT
RMK NXT FCST BY 050900Z=
Your time UTC time
Weather data provided by Environment Canada and NAV CANADA